Overview Statistics Trail Chart Weather Telemetry Raw packets
 

This is the latest recevied weather packets stored in our database for station/object IW1RID-3. If no packets are shown the sender has not sent any weather packets the latest 10 day(s).

<< 17 18 19 20 21 22 23 >>
Time Temp. Humidity Pressure Rain* Wind** Luminosity Snow
1788092719 29.44° C 55% 1073.2 hPa - - - -
1788091513 29.44° C 60% 1073.1 hPa - - - -
1788090309 28.33° C 61% 1073 hPa - - - -
1788089104 28.89° C 57% 1073.1 hPa - - - -
1788086693 27.78° C 53% 1073.2 hPa - - - -
1788085488 28.33° C 51% 1073.2 hPa - - - -
1788084283 28.33° C 46% 1073.3 hPa - - - -
1788083078 28.33° C 47% 1073.4 hPa - - - -
1788081874 27.78° C 48% 1073.6 hPa - - - -
1788080669 27.22° C 48% 1073.6 hPa - - - -
1788079464 26.11° C 53% 1073.5 hPa - - - -
1788078259 25.56° C 53% 1073.5 hPa - - - -
1788077055 24.44° C 56% 1073.2 hPa - - - -
1788075850 22.78° C 60% 1073 hPa - - - -
1788074646 21.67° C 64% 1072.9 hPa - - - -
1788073441 20.56° C 66% 1072.9 hPa - - - -
1788072236 20° C 68% 1072.8 hPa - - - -
1788071032 19.44° C 69% 1072.5 hPa - - - -
1788069828 18.89° C 71% 1072.4 hPa - - - -
1788068623 18.89° C 68% 1072.4 hPa - - - -
1788067418 18.33° C 72% 1072.3 hPa - - - -
1788066213 18.89° C 69% 1072.1 hPa - - - -
1788065009 18.89° C 70% 1072 hPa - - - -
1788063804 18.33° C 71% 1071.9 hPa - - - -
1788062600 18.89° C 69% 1072 hPa - - - -

* Rain since midnight (hover to see other rain measurements)
** Current wind speed in m/s (hover to see current wind gust speed)